createdAt,value
2022-09-17T00:01:29.711Z,92.66
2022-09-17T00:04:04.347Z,91.72
2022-09-17T00:06:34.367Z,92.70
2022-09-17T00:09:02.578Z,93.95
2022-09-17T00:11:33.490Z,93.92
2022-09-17T00:14:03.160Z,93.54
2022-09-17T00:16:32.867Z,93.52
2022-09-17T00:19:01.565Z,94.22
2022-09-17T00:21:30.420Z,93.22
2022-09-17T00:23:59.917Z,95.39
2022-09-17T00:26:28.804Z,94.92
2022-09-17T00:28:59.275Z,94.90
2022-09-17T00:31:28.502Z,95.05
2022-09-17T00:33:56.728Z,96.97
2022-09-17T00:36:24.759Z,98.61
2022-09-17T00:38:53.135Z,98.27
2022-09-17T00:41:22.380Z,97.67
2022-09-17T00:43:52.459Z,97.62
2022-09-17T00:46:31.403Z,99.32
2022-09-17T00:49:02.930Z,97.96
2022-09-17T00:51:36.382Z,99.53
2022-09-17T00:54:07.613Z,99.58
2022-09-17T00:56:38.086Z,99.21
2022-09-17T00:59:07.053Z,98.48
2022-09-17T01:01:37.423Z,100.00
2022-09-17T01:04:05.548Z,99.96
2022-09-17T01:06:38.145Z,100.00
2022-09-17T01:09:23.233Z,100.00
2022-09-17T01:12:04.702Z,100.00
2022-09-17T01:14:48.852Z,100.00
2022-09-17T01:17:24.981Z,100.00
2022-09-17T01:20:32.394Z,100.00
2022-09-17T01:23:32.993Z,100.00
2022-09-17T01:26:19.812Z,100.00
2022-09-17T01:28:57.949Z,100.00
2022-09-17T01:31:36.322Z,100.00
2022-09-17T01:34:13.071Z,100.00
2022-09-17T01:36:49.997Z,100.00
2022-09-17T01:39:30.027Z,99.29
2022-09-17T01:42:06.149Z,99.05
2022-09-17T01:44:41.783Z,97.87
2022-09-17T01:47:20.942Z,97.22
2022-09-17T01:49:51.681Z,97.31
2022-09-17T01:52:21.865Z,97.02
2022-09-17T01:54:55.479Z,97.35
2022-09-17T01:57:29.986Z,96.99
2022-09-17T02:00:02.535Z,98.05
2022-09-17T02:02:46.401Z,98.90
2022-09-17T02:05:20.522Z,100.00
2022-09-17T02:07:52.235Z,100.00
2022-09-17T02:10:23.603Z,100.00
2022-09-17T02:12:58.026Z,100.00
2022-09-17T02:15:32.279Z,100.00
2022-09-17T02:18:07.458Z,100.00
2022-09-17T02:20:42.550Z,100.00
2022-09-17T02:23:17.539Z,100.00
2022-09-17T02:25:50.754Z,100.00
2022-09-17T02:28:25.277Z,100.00
2022-09-17T02:30:53.186Z,100.00
2022-09-17T02:33:23.544Z,100.00
2022-09-17T02:35:51.695Z,100.00
2022-09-17T02:38:24.439Z,100.00
2022-09-17T02:41:00.351Z,100.00
2022-09-17T02:43:36.695Z,100.00
2022-09-17T02:46:20.968Z,100.00
2022-09-17T02:49:15.472Z,100.00
2022-09-17T02:51:53.495Z,100.00
2022-09-17T02:54:28.257Z,100.00
2022-09-17T02:57:09.401Z,100.00
2022-09-17T02:59:43.026Z,100.00
2022-09-17T03:02:24.298Z,100.00
2022-09-17T03:04:55.139Z,100.00
2022-09-17T03:07:24.819Z,100.00
2022-09-17T03:09:52.818Z,100.00
2022-09-17T03:12:20.768Z,100.00
2022-09-17T03:14:48.689Z,100.00
2022-09-17T03:17:17.147Z,100.00
2022-09-17T03:19:44.914Z,100.00
2022-09-17T03:22:14.115Z,100.00
2022-09-17T03:24:41.963Z,100.00
2022-09-17T03:27:09.795Z,100.00
2022-09-17T03:29:37.724Z,100.00
2022-09-17T03:32:05.937Z,100.00
2022-09-17T03:34:34.155Z,100.00
2022-09-17T03:37:02.319Z,100.00
2022-09-17T03:39:31.805Z,100.00
2022-09-17T03:41:59.737Z,100.00
2022-09-17T03:44:27.670Z,100.00
2022-09-17T03:46:55.789Z,100.00
2022-09-17T03:49:24.887Z,99.39
2022-09-17T03:51:52.781Z,99.15
2022-09-17T03:54:20.573Z,100.00
2022-09-17T03:56:50.139Z,100.00
2022-09-17T03:59:18.104Z,100.00
2022-09-17T04:01:46.170Z,99.84
2022-09-17T04:04:13.967Z,100.00
2022-09-17T04:06:41.873Z,100.00
2022-09-17T04:09:09.801Z,99.52
2022-09-17T04:11:37.808Z,100.00
2022-09-17T04:14:07.293Z,98.19
2022-09-17T04:16:35.291Z,99.00
2022-09-17T04:19:03.665Z,98.21
2022-09-17T04:21:31.499Z,97.41
2022-09-17T04:23:59.877Z,97.73
2022-09-17T04:26:27.769Z,97.48
2022-09-17T04:28:55.519Z,96.24
2022-09-17T04:31:27.069Z,98.35
2022-09-17T04:33:55.183Z,97.52
2022-09-17T04:36:23.032Z,98.71
2022-09-17T04:38:51.219Z,98.41
2022-09-17T04:41:19.522Z,98.03
2022-09-17T04:43:49.356Z,97.99
2022-09-17T04:46:17.894Z,97.51
2022-09-17T04:48:47.130Z,96.96
2022-09-17T04:51:15.148Z,97.05
2022-09-17T04:53:42.965Z,97.80
2022-09-17T04:56:10.791Z,97.25
2022-09-17T04:58:39.151Z,96.12
2022-09-17T05:01:07.426Z,95.51
2022-09-17T05:03:35.506Z,95.93
2022-09-17T05:06:05.390Z,96.02
2022-09-17T05:08:33.324Z,96.52
2022-09-17T05:11:01.303Z,96.73
2022-09-17T05:13:29.204Z,97.26
2022-09-17T05:15:57.569Z,97.75
2022-09-17T05:18:26.263Z,97.89
2022-09-17T05:20:54.143Z,97.91
2022-09-17T05:23:23.322Z,98.06
2022-09-17T05:25:52.781Z,98.53
2022-09-17T05:28:20.690Z,99.72
2022-09-17T05:30:49.117Z,98.34
2022-09-17T05:33:17.259Z,99.48
2022-09-17T05:35:45.326Z,100.00
2022-09-17T05:38:13.369Z,100.00
2022-09-17T05:40:43.605Z,99.69
2022-09-17T05:43:12.451Z,99.78
2022-09-17T05:45:40.467Z,99.81
2022-09-17T05:48:12.604Z,99.43
2022-09-17T05:50:41.331Z,98.28
2022-09-17T05:53:13.022Z,98.65
2022-09-17T05:55:42.524Z,97.47
2022-09-17T05:58:12.189Z,99.50
2022-09-17T06:00:41.227Z,98.73
2022-09-17T06:03:10.271Z,98.49
2022-09-17T06:05:38.497Z,98.03
2022-09-17T06:08:06.921Z,98.41
2022-09-17T06:10:38.281Z,98.00
2022-09-17T06:13:07.512Z,97.92
2022-09-17T06:15:35.486Z,97.96
2022-09-17T06:18:03.368Z,97.56
2022-09-17T06:20:31.175Z,98.46
2022-09-17T06:22:59.746Z,99.16
2022-09-17T06:25:29.410Z,99.30
2022-09-17T06:27:58.703Z,98.28
2022-09-17T06:30:28.540Z,98.32
2022-09-17T06:32:56.614Z,98.59
2022-09-17T06:35:25.239Z,97.46
2022-09-17T06:37:53.127Z,98.01
2022-09-17T06:40:23.533Z,96.33
2022-09-17T06:42:51.614Z,94.10
2022-09-17T06:45:19.657Z,94.31
2022-09-17T06:47:49.182Z,93.77
2022-09-17T06:50:17.245Z,93.26
2022-09-17T06:52:49.515Z,93.06
2022-09-17T06:55:18.561Z,93.49
2022-09-17T06:57:46.566Z,93.77
2022-09-17T07:00:15.905Z,93.69
2022-09-17T07:02:43.787Z,93.54
2022-09-17T07:05:13.092Z,93.82
2022-09-17T07:07:41.239Z,91.85
2022-09-17T07:10:10.053Z,91.76
2022-09-17T07:12:46.627Z,92.48
2022-09-17T07:15:17.278Z,92.32
2022-09-17T07:17:45.572Z,93.42
2022-09-17T07:20:15.555Z,91.26
2022-09-17T07:22:43.892Z,90.64
2022-09-17T07:25:12.437Z,87.54
2022-09-17T07:27:41.482Z,87.49
2022-09-17T07:30:11.227Z,87.96
2022-09-17T07:32:39.246Z,87.38
2022-09-17T07:35:08.009Z,86.73
2022-09-17T07:37:37.735Z,86.49
2022-09-17T07:40:07.664Z,86.64
2022-09-17T07:42:36.110Z,87.39
2022-09-17T07:45:04.217Z,87.11
2022-09-17T07:47:32.936Z,87.39
2022-09-17T07:50:04.074Z,85.14
2022-09-17T07:52:33.252Z,82.95
2022-09-17T07:55:02.577Z,83.55
2022-09-17T07:57:30.578Z,82.37
2022-09-17T07:59:58.411Z,81.88
2022-09-17T08:02:27.026Z,81.58
2022-09-17T08:04:55.288Z,81.63
2022-09-17T08:07:23.443Z,81.11
2022-09-17T08:09:51.763Z,80.27
2022-09-17T08:12:22.799Z,80.75
2022-09-17T08:14:50.746Z,79.94
2022-09-17T08:17:18.635Z,80.42
2022-09-17T08:19:46.666Z,80.70
2022-09-17T08:22:15.006Z,77.84
2022-09-17T08:24:43.051Z,79.12
2022-09-17T08:27:11.539Z,78.82
2022-09-17T08:29:40.727Z,80.82
2022-09-17T08:32:08.862Z,79.04
2022-09-17T08:34:37.086Z,79.44
2022-09-17T08:37:04.939Z,79.90
2022-09-17T08:39:32.806Z,76.84
2022-09-17T08:42:09.873Z,76.00
2022-09-17T08:44:45.580Z,76.50
2022-09-17T08:47:19.562Z,75.68
2022-09-17T08:49:54.003Z,75.61
2022-09-17T08:52:55.526Z,74.66
2022-09-17T08:55:36.717Z,76.28
2022-09-17T08:58:41.869Z,76.29
2022-09-17T09:01:21.992Z,76.38
2022-09-17T09:04:05.490Z,76.88
2022-09-17T09:06:41.137Z,75.07
2022-09-17T09:09:15.681Z,72.86
2022-09-17T09:11:50.990Z,73.07
2022-09-17T09:14:24.897Z,71.95
2022-09-17T09:16:56.819Z,71.03
2022-09-17T09:19:27.072Z,73.74
2022-09-17T09:22:05.921Z,73.84
2022-09-17T09:24:42.646Z,70.66
2022-09-17T09:27:19.424Z,72.12
2022-09-17T09:29:59.262Z,70.40
2022-09-17T09:32:42.299Z,72.08
2022-09-17T09:35:18.782Z,68.67
2022-09-17T09:37:54.906Z,68.30
2022-09-17T09:40:43.954Z,70.61
2022-09-17T09:43:19.963Z,70.00
2022-09-17T09:46:08.750Z,70.46
2022-09-17T09:48:51.647Z,71.51
2022-09-17T09:51:32.613Z,72.56
2022-09-17T09:54:14.543Z,77.12
2022-09-17T09:56:56.132Z,78.67
2022-09-17T09:59:24.508Z,75.78
2022-09-17T10:01:53.122Z,74.90
2022-09-17T10:04:25.843Z,72.02
2022-09-17T10:06:55.781Z,72.01
2022-09-17T10:09:23.957Z,71.36
2022-09-17T10:12:03.191Z,67.03
2022-09-17T10:14:33.393Z,70.79
2022-09-17T10:17:18.120Z,67.51
2022-09-17T10:19:48.861Z,67.51
2022-09-17T10:22:26.467Z,68.81
2022-09-17T10:24:56.836Z,68.58
2022-09-17T10:27:26.643Z,66.71
2022-09-17T10:30:04.093Z,67.75
2022-09-17T10:32:32.395Z,64.42
2022-09-17T10:35:05.055Z,65.50
2022-09-17T10:37:36.872Z,65.25
2022-09-17T10:40:27.352Z,68.17
2022-09-17T10:43:22.444Z,65.72
2022-09-17T10:45:59.974Z,66.94
2022-09-17T10:48:32.983Z,65.49
2022-09-17T10:51:03.468Z,65.74
2022-09-17T10:53:31.505Z,65.41
2022-09-17T10:56:12.571Z,63.06
2022-09-17T10:58:54.117Z,63.00
2022-09-17T11:01:37.177Z,65.02
2022-09-17T11:04:21.653Z,61.78
2022-09-17T11:07:21.898Z,61.22
2022-09-17T11:09:57.735Z,62.04
2022-09-17T11:12:38.153Z,62.07
2022-09-17T11:15:21.963Z,62.78
2022-09-17T11:18:31.301Z,60.71
2022-09-17T11:21:14.977Z,59.47
2022-09-17T11:24:34.781Z,60.88
2022-09-17T11:27:13.309Z,59.38
2022-09-17T11:30:05.554Z,60.44
2022-09-17T11:33:00.439Z,64.08
2022-09-17T11:35:32.098Z,62.79
2022-09-17T11:38:07.522Z,62.20
2022-09-17T11:40:42.931Z,61.77
2022-09-17T11:43:19.529Z,61.93
2022-09-17T11:45:58.289Z,61.24
2022-09-17T11:48:34.963Z,63.82
2022-09-17T11:51:09.896Z,62.77
2022-09-17T11:53:44.347Z,60.52
2022-09-17T11:56:20.816Z,60.57
2022-09-17T11:58:52.899Z,61.29
2022-09-17T12:01:26.789Z,59.39
2022-09-17T12:03:59.375Z,57.25
2022-09-17T12:06:35.118Z,56.49
2022-09-17T12:09:10.652Z,55.27
2022-09-17T12:11:46.519Z,56.08
2022-09-17T12:14:21.982Z,56.21
2022-09-17T12:16:54.095Z,59.98
2022-09-17T12:19:27.606Z,57.54
2022-09-17T12:22:01.418Z,58.95
2022-09-17T12:24:30.996Z,60.19
2022-09-17T12:27:10.917Z,58.65
2022-09-17T12:30:11.099Z,55.90
2022-09-17T12:32:52.236Z,56.05
2022-09-17T12:36:00.183Z,58.46
2022-09-17T12:38:42.500Z,61.37
2022-09-17T12:41:17.490Z,59.50
2022-09-17T12:44:01.031Z,57.78
2022-09-17T12:46:48.095Z,55.26
2022-09-17T12:49:39.535Z,56.20
2022-09-17T12:52:14.903Z,56.91
2022-09-17T12:55:24.681Z,55.93
2022-09-17T12:58:01.163Z,55.79
2022-09-17T13:00:30.446Z,57.92
2022-09-17T13:03:05.295Z,57.56
2022-09-17T13:05:58.333Z,54.00
2022-09-17T13:09:00.375Z,54.79
2022-09-17T13:11:55.036Z,54.15
2022-09-17T13:14:31.907Z,53.74
2022-09-17T13:17:08.037Z,55.57
2022-09-17T13:19:41.523Z,54.79
2022-09-17T13:22:18.047Z,55.46
2022-09-17T13:24:48.979Z,55.75
2022-09-17T13:27:25.624Z,57.11
2022-09-17T13:30:04.133Z,58.27
2022-09-17T13:32:53.782Z,57.26
2022-09-17T13:35:50.788Z,54.40
2022-09-17T13:38:24.460Z,52.70
2022-09-17T13:40:53.561Z,52.42
2022-09-17T13:43:27.191Z,54.93
2022-09-17T13:46:18.226Z,55.94
2022-09-17T13:48:50.942Z,56.12
2022-09-17T13:51:58.346Z,58.53
2022-09-17T13:54:38.890Z,55.55
2022-09-17T13:57:16.256Z,55.42
2022-09-17T13:59:59.295Z,55.53
2022-09-17T14:02:39.577Z,54.96
2022-09-17T14:05:39.203Z,53.51
2022-09-17T14:08:30.948Z,54.90
2022-09-17T14:11:01.907Z,53.49
2022-09-17T14:13:44.869Z,53.75
2022-09-17T14:16:37.701Z,51.81
2022-09-17T14:19:24.477Z,52.03
2022-09-17T14:22:02.670Z,52.97
2022-09-17T14:24:38.531Z,50.73
2022-09-17T14:27:16.266Z,52.72
2022-09-17T14:30:07.061Z,51.27
2022-09-17T14:32:42.297Z,52.17
2022-09-17T14:35:21.490Z,52.53
2022-09-17T14:37:56.535Z,55.11
2022-09-17T14:40:25.708Z,54.21
2022-09-17T14:42:56.853Z,54.28
2022-09-17T14:45:32.271Z,55.16
2022-09-17T14:48:31.423Z,56.11
2022-09-17T14:51:29.487Z,57.03
2022-09-17T14:54:17.264Z,58.16
2022-09-17T14:56:50.685Z,57.93
2022-09-17T14:59:24.790Z,60.32
2022-09-17T15:01:52.891Z,60.68
2022-09-17T15:04:26.525Z,61.99
2022-09-17T15:07:06.837Z,61.44
2022-09-17T15:09:36.208Z,61.54
2022-09-17T15:12:06.074Z,62.42
2022-09-17T15:14:38.271Z,62.72
2022-09-17T15:17:07.133Z,63.33
2022-09-17T15:19:38.335Z,63.78
2022-09-17T15:22:10.973Z,63.58
2022-09-17T15:24:44.887Z,63.57
2022-09-17T15:27:18.419Z,64.42
2022-09-17T15:29:50.691Z,64.44
2022-09-17T15:32:18.819Z,62.94
2022-09-17T15:34:47.036Z,62.97
2022-09-17T15:37:19.436Z,62.75
2022-09-17T15:39:55.651Z,62.72
2022-09-17T15:42:28.842Z,62.29
2022-09-17T15:45:09.420Z,65.30
2022-09-17T15:47:49.573Z,67.37
2022-09-17T15:50:19.797Z,69.23
2022-09-17T15:52:48.553Z,73.14
2022-09-17T15:55:37.183Z,73.42
2022-09-17T15:58:18.809Z,76.92
2022-09-17T16:00:47.453Z,80.10
2022-09-17T16:04:06.385Z,82.88
2022-09-17T16:06:40.298Z,86.45
2022-09-17T16:09:41.301Z,91.71
2022-09-17T16:12:14.698Z,93.43
2022-09-17T16:14:50.765Z,93.26
2022-09-17T16:17:35.616Z,94.60
2022-09-17T16:20:16.754Z,95.57
2022-09-17T16:22:45.483Z,98.88
2022-09-17T16:25:13.700Z,98.94
2022-09-17T16:27:50.342Z,99.32
2022-09-17T16:30:20.496Z,100.00
2022-09-17T16:32:48.893Z,100.00
2022-09-17T16:35:18.580Z,100.00
2022-09-17T16:37:50.141Z,100.00
2022-09-17T16:40:18.736Z,100.00
2022-09-17T16:42:48.911Z,100.00
2022-09-17T16:45:22.651Z,100.00
2022-09-17T16:47:53.752Z,100.00
2022-09-17T16:50:21.683Z,100.00
2022-09-17T16:52:50.557Z,100.00
2022-09-17T16:55:19.465Z,100.00
2022-09-17T16:57:49.330Z,100.00
2022-09-17T17:00:19.914Z,100.00
2022-09-17T17:02:53.685Z,100.00
2022-09-17T17:05:21.721Z,100.00
2022-09-17T17:07:50.234Z,100.00
2022-09-17T17:10:18.247Z,100.00
2022-09-17T17:12:46.235Z,100.00
2022-09-17T17:15:16.524Z,100.00
2022-09-17T17:17:44.510Z,100.00
2022-09-17T17:20:14.518Z,100.00
2022-09-17T17:22:43.372Z,100.00
2022-09-17T17:25:12.690Z,100.00
2022-09-17T17:27:41.406Z,100.00
2022-09-17T17:30:16.617Z,100.00
2022-09-17T17:32:50.530Z,100.00
2022-09-17T17:35:19.167Z,100.00
2022-09-17T17:37:48.571Z,100.00
2022-09-17T17:40:16.745Z,100.00
2022-09-17T17:42:47.467Z,100.00
2022-09-17T17:45:15.840Z,100.00
2022-09-17T17:47:46.278Z,100.00
2022-09-17T17:50:15.731Z,100.00
2022-09-17T17:52:47.993Z,100.00
2022-09-17T17:55:16.692Z,100.00
2022-09-17T17:57:44.601Z,100.00
2022-09-17T18:00:16.242Z,100.00
2022-09-17T18:02:45.719Z,100.00
2022-09-17T18:05:14.282Z,100.00
2022-09-17T18:07:42.147Z,100.00
2022-09-17T18:10:11.011Z,100.00
2022-09-17T18:12:38.849Z,100.00
2022-09-17T18:15:08.394Z,100.00
2022-09-17T18:17:36.646Z,100.00
2022-09-17T18:20:06.604Z,100.00
2022-09-17T18:22:34.461Z,100.00
2022-09-17T18:25:02.367Z,100.00
2022-09-17T18:27:31.266Z,100.00
2022-09-17T18:29:59.118Z,100.00
2022-09-17T18:32:26.963Z,100.00
2022-09-17T18:34:54.867Z,100.00
2022-09-17T18:37:24.209Z,100.00
2022-09-17T18:39:58.420Z,100.00
2022-09-17T18:42:27.157Z,100.00
2022-09-17T18:44:55.155Z,100.00
2022-09-17T18:47:23.667Z,100.00
2022-09-17T18:49:51.475Z,100.00
2022-09-17T18:52:19.896Z,100.00
2022-09-17T18:54:49.195Z,100.00
2022-09-17T18:57:17.530Z,100.00
2022-09-17T18:59:45.432Z,100.00
2022-09-17T19:02:14.021Z,100.00
2022-09-17T19:04:42.738Z,100.00
2022-09-17T19:07:10.576Z,100.00
2022-09-17T19:09:38.502Z,100.00
2022-09-17T19:12:07.887Z,100.00
2022-09-17T19:14:36.225Z,100.00
2022-09-17T19:17:04.123Z,100.00
2022-09-17T19:19:31.945Z,100.00
2022-09-17T19:21:59.866Z,100.00
2022-09-17T19:24:28.086Z,100.00
2022-09-17T19:26:56.013Z,100.00
2022-09-17T19:29:25.750Z,100.00
2022-09-17T19:31:53.589Z,100.00
2022-09-17T19:34:24.200Z,100.00
2022-09-17T19:36:52.052Z,100.00
2022-09-17T19:39:19.952Z,100.00
2022-09-17T19:41:48.156Z,100.00
2022-09-17T19:44:16.107Z,100.00
2022-09-17T19:46:46.635Z,100.00
2022-09-17T19:49:14.652Z,100.00
2022-09-17T19:51:42.560Z,100.00
2022-09-17T19:54:11.757Z,100.00
2022-09-17T19:56:40.018Z,100.00
2022-09-17T19:59:07.958Z,100.00
2022-09-17T20:01:36.329Z,100.00
2022-09-17T20:04:07.013Z,100.00
2022-09-17T20:06:35.446Z,100.00
2022-09-17T20:09:04.229Z,100.00
2022-09-17T20:11:32.111Z,100.00
2022-09-17T20:14:03.278Z,100.00
2022-09-17T20:16:31.838Z,100.00
2022-09-17T20:18:59.941Z,100.00
2022-09-17T20:21:31.290Z,100.00
2022-09-17T20:23:59.757Z,100.00
2022-09-17T20:26:28.270Z,100.00
2022-09-17T20:28:56.537Z,100.00
2022-09-17T20:31:25.998Z,100.00
2022-09-17T20:33:55.252Z,100.00
2022-09-17T20:36:25.736Z,100.00
2022-09-17T20:39:23.220Z,100.00
2022-09-17T20:41:43.505Z,100.00
2022-09-17T20:44:11.834Z,100.00
2022-09-17T20:46:40.036Z,100.00
2022-09-17T20:49:07.941Z,100.00
2022-09-17T20:51:36.344Z,100.00
2022-09-17T20:54:07.486Z,100.00
2022-09-17T20:56:36.367Z,100.00
2022-09-17T20:59:13.003Z,100.00
2022-09-17T21:01:44.689Z,100.00
2022-09-17T21:04:15.925Z,100.00
2022-09-17T21:06:45.124Z,100.00
2022-09-17T21:09:16.695Z,100.00
2022-09-17T21:11:45.519Z,100.00
2022-09-17T21:14:15.583Z,100.00
2022-09-17T21:16:43.510Z,100.00
2022-09-17T21:19:14.095Z,100.00
2022-09-17T21:21:41.924Z,100.00
2022-09-17T21:24:10.487Z,100.00
2022-09-17T21:26:39.804Z,100.00
2022-09-17T21:29:07.918Z,100.00
2022-09-17T21:31:38.625Z,100.00
2022-09-17T21:34:08.586Z,100.00
2022-09-17T21:36:38.900Z,100.00
2022-09-17T21:39:13.598Z,100.00
2022-09-17T21:41:43.253Z,100.00
2022-09-17T21:44:11.670Z,100.00
2022-09-17T21:46:41.684Z,100.00
2022-09-17T21:49:10.001Z,100.00
2022-09-17T21:51:39.439Z,100.00
2022-09-17T21:54:09.170Z,100.00
2022-09-17T21:56:37.557Z,100.00
2022-09-17T21:59:08.046Z,100.00
2022-09-17T22:01:40.139Z,100.00
2022-09-17T22:04:09.957Z,100.00
2022-09-17T22:06:38.670Z,100.00
2022-09-17T22:09:07.964Z,100.00
2022-09-17T22:11:38.137Z,100.00
2022-09-17T22:14:11.766Z,100.00
2022-09-17T22:16:41.795Z,100.00
2022-09-17T22:19:11.891Z,100.00
2022-09-17T22:21:42.310Z,100.00
2022-09-17T22:24:12.020Z,100.00
2022-09-17T22:26:43.272Z,100.00
2022-09-17T22:29:16.009Z,100.00
2022-09-17T22:31:45.152Z,100.00
2022-09-17T22:34:15.541Z,100.00
2022-09-17T22:36:44.010Z,100.00
2022-09-17T22:39:12.608Z,100.00
2022-09-17T22:41:45.126Z,100.00
2022-09-17T22:44:17.545Z,100.00
2022-09-17T22:46:47.347Z,100.00
2022-09-17T22:49:15.638Z,100.00
2022-09-17T22:51:44.653Z,100.00
2022-09-17T22:54:14.908Z,100.00
2022-09-17T22:56:43.575Z,100.00
2022-09-17T22:59:11.619Z,100.00
2022-09-17T23:01:43.255Z,100.00
2022-09-17T23:04:11.723Z,100.00
2022-09-17T23:06:42.438Z,100.00
2022-09-17T23:09:12.686Z,100.00
2022-09-17T23:11:40.613Z,99.24
2022-09-17T23:14:10.418Z,100.00
2022-09-17T23:16:40.150Z,100.00
2022-09-17T23:19:10.286Z,100.00
2022-09-17T23:21:39.500Z,100.00
2022-09-17T23:24:08.202Z,100.00
2022-09-17T23:26:36.196Z,100.00
2022-09-17T23:29:05.795Z,100.00
2022-09-17T23:31:35.665Z,100.00
2022-09-17T23:34:05.443Z,100.00
2022-09-17T23:36:38.735Z,100.00
2022-09-17T23:39:08.772Z,100.00
2022-09-17T23:41:39.901Z,98.16
2022-09-17T23:44:14.587Z,100.00
2022-09-17T23:46:43.110Z,100.00
2022-09-17T23:49:12.128Z,100.00
2022-09-17T23:51:41.926Z,100.00
2022-09-17T23:54:10.545Z,100.00
2022-09-17T23:56:39.597Z,100.00
2022-09-17T23:59:08.684Z,100.00
